createdAt,value
2022-10-10T00:01:26.682Z,11.79
2022-10-10T00:03:34.215Z,11.79
2022-10-10T00:05:39.960Z,11.78
2022-10-10T00:07:45.557Z,11.79
2022-10-10T00:09:50.912Z,11.75
2022-10-10T00:11:55.746Z,11.71
2022-10-10T00:14:00.828Z,11.66
2022-10-10T00:16:05.690Z,11.66
2022-10-10T00:18:10.767Z,11.65
2022-10-10T00:20:20.338Z,11.68
2022-10-10T00:22:25.070Z,11.67
2022-10-10T00:24:29.866Z,11.66
2022-10-10T00:26:34.652Z,11.66
2022-10-10T00:28:40.455Z,11.66
2022-10-10T00:30:45.790Z,11.64
2022-10-10T00:32:50.358Z,11.53
2022-10-10T00:34:59.361Z,11.52
2022-10-10T00:37:07.570Z,11.52
2022-10-10T00:39:12.325Z,11.52
2022-10-10T00:41:17.115Z,11.52
2022-10-10T00:43:21.971Z,11.55
2022-10-10T00:45:34.549Z,11.57
2022-10-10T00:47:39.278Z,11.60
2022-10-10T00:49:46.445Z,11.62
2022-10-10T00:51:56.244Z,11.62
2022-10-10T00:54:06.897Z,11.65
2022-10-10T00:56:12.793Z,11.65
2022-10-10T00:58:19.423Z,11.62
2022-10-10T01:00:24.227Z,11.63
2022-10-10T01:02:28.980Z,11.63
2022-10-10T01:04:39.533Z,11.65
2022-10-10T01:06:46.763Z,11.67
2022-10-10T01:08:51.620Z,11.66
2022-10-10T01:11:13.449Z,11.72
2022-10-10T01:13:26.577Z,11.75
2022-10-10T01:15:39.645Z,11.81
2022-10-10T01:17:50.435Z,11.83
2022-10-10T01:20:25.462Z,11.83
2022-10-10T01:22:41.519Z,11.77
2022-10-10T01:24:59.297Z,11.73
2022-10-10T01:27:32.615Z,11.69
2022-10-10T01:29:42.506Z,11.62
2022-10-10T01:31:51.003Z,11.64
2022-10-10T01:34:05.170Z,11.61
2022-10-10T01:36:18.437Z,11.59
2022-10-10T01:38:33.526Z,11.49
2022-10-10T01:40:47.410Z,11.33
2022-10-10T01:42:57.092Z,11.28
2022-10-10T01:45:04.544Z,11.26
2022-10-10T01:47:12.134Z,11.25
2022-10-10T01:49:17.290Z,11.23
2022-10-10T01:51:40.427Z,11.17
2022-10-10T01:53:50.976Z,11.16
2022-10-10T01:56:01.859Z,11.10
2022-10-10T01:58:21.791Z,11.07
2022-10-10T02:00:29.259Z,11.04
2022-10-10T02:02:41.792Z,11.03
2022-10-10T02:04:52.912Z,11.04
2022-10-10T02:07:02.855Z,11.06
2022-10-10T02:09:13.017Z,11.05
2022-10-10T02:11:17.858Z,11.06
2022-10-10T02:13:26.233Z,11.06
2022-10-10T02:15:39.655Z,11.09
2022-10-10T02:17:48.707Z,11.10
2022-10-10T02:19:56.977Z,11.09
2022-10-10T02:22:02.563Z,11.09
2022-10-10T02:24:10.960Z,11.07
2022-10-10T02:26:18.828Z,11.04
2022-10-10T02:28:28.416Z,11.02
2022-10-10T02:30:37.734Z,10.97
2022-10-10T02:32:46.459Z,10.97
2022-10-10T02:34:54.863Z,10.95
2022-10-10T02:37:03.448Z,10.97
2022-10-10T02:39:10.212Z,10.96
2022-10-10T02:41:20.136Z,10.97
2022-10-10T02:43:25.249Z,10.97
2022-10-10T02:45:33.112Z,10.96
2022-10-10T02:47:40.447Z,10.93
2022-10-10T02:49:45.240Z,10.92
2022-10-10T02:51:49.995Z,10.92
2022-10-10T02:53:54.720Z,10.92
2022-10-10T02:55:59.508Z,10.94
2022-10-10T02:58:04.263Z,10.85
2022-10-10T03:00:10.844Z,10.81
2022-10-10T03:02:15.583Z,10.75
2022-10-10T03:04:22.942Z,10.70
2022-10-10T03:06:27.840Z,10.67
2022-10-10T03:08:32.562Z,10.64
2022-10-10T03:10:37.272Z,10.63
2022-10-10T03:12:42.056Z,10.63
2022-10-10T03:14:46.948Z,10.63
2022-10-10T03:16:51.683Z,10.62
2022-10-10T03:18:56.466Z,10.64
2022-10-10T03:21:03.803Z,10.65
2022-10-10T03:23:08.532Z,10.66
2022-10-10T03:25:13.291Z,10.71
2022-10-10T03:27:18.087Z,10.76
2022-10-10T03:29:22.921Z,10.81
2022-10-10T03:31:30.429Z,10.85
2022-10-10T03:33:35.234Z,10.84
2022-10-10T03:35:40.036Z,10.88
2022-10-10T03:37:47.385Z,10.93
2022-10-10T03:39:52.295Z,10.94
2022-10-10T03:41:57.033Z,10.98
2022-10-10T03:44:01.916Z,11.01
2022-10-10T03:46:06.799Z,11.03
2022-10-10T03:48:11.507Z,11.06
2022-10-10T03:50:16.497Z,11.09
2022-10-10T03:52:21.987Z,11.12
2022-10-10T03:54:29.559Z,11.13
2022-10-10T03:56:34.420Z,11.08
2022-10-10T03:58:39.283Z,11.04
2022-10-10T04:00:44.034Z,11.02
2022-10-10T04:02:49.262Z,11.02
2022-10-10T04:04:53.898Z,11.00
2022-10-10T04:06:58.780Z,11.00
2022-10-10T04:09:04.447Z,10.99
2022-10-10T04:11:11.822Z,11.02
2022-10-10T04:13:16.622Z,11.05
2022-10-10T04:15:21.652Z,11.05
2022-10-10T04:17:26.421Z,11.06
2022-10-10T04:19:31.147Z,11.03
2022-10-10T04:21:35.860Z,11.04
2022-10-10T04:23:41.277Z,11.05
2022-10-10T04:25:48.022Z,11.06
2022-10-10T04:28:00.689Z,11.05
2022-10-10T04:30:06.235Z,11.03
2022-10-10T04:32:11.045Z,11.01
2022-10-10T04:34:15.763Z,10.99
2022-10-10T04:36:20.504Z,10.99
2022-10-10T04:38:25.352Z,10.97
2022-10-10T04:40:30.210Z,10.92
2022-10-10T04:42:34.967Z,10.92
2022-10-10T04:44:42.364Z,10.90
2022-10-10T04:46:47.291Z,10.86
2022-10-10T04:48:52.375Z,10.83
2022-10-10T04:50:58.032Z,10.82
2022-10-10T04:53:02.861Z,10.73
2022-10-10T04:55:08.572Z,10.65
2022-10-10T04:57:13.443Z,10.62
2022-10-10T04:59:18.361Z,10.59
2022-10-10T05:01:25.813Z,10.58
2022-10-10T05:03:30.813Z,10.57
2022-10-10T05:05:35.630Z,10.57
2022-10-10T05:07:40.573Z,10.59
2022-10-10T05:09:45.364Z,10.60
2022-10-10T05:11:50.148Z,10.61
2022-10-10T05:13:55.249Z,10.57
2022-10-10T05:16:00.840Z,10.57
2022-10-10T05:18:08.871Z,10.61
2022-10-10T05:20:13.846Z,10.58
2022-10-10T05:22:18.614Z,10.58
2022-10-10T05:24:23.363Z,10.55
2022-10-10T05:26:28.120Z,10.51
2022-10-10T05:28:35.318Z,10.51
2022-10-10T05:30:40.167Z,10.51
2022-10-10T05:32:45.620Z,10.52
2022-10-10T05:34:52.992Z,10.56
2022-10-10T05:36:58.157Z,10.60
2022-10-10T05:39:03.462Z,10.62
2022-10-10T05:41:08.285Z,10.57
2022-10-10T05:43:13.333Z,10.56
2022-10-10T05:45:18.281Z,10.56
2022-10-10T05:47:27.639Z,10.60
2022-10-10T05:49:33.031Z,10.58
2022-10-10T05:51:40.396Z,10.58
2022-10-10T05:53:45.147Z,10.58
2022-10-10T05:55:49.968Z,10.60
2022-10-10T05:57:54.695Z,10.63
2022-10-10T05:59:59.440Z,10.63
2022-10-10T06:02:04.298Z,10.61
2022-10-10T06:04:09.277Z,10.59
2022-10-10T06:06:14.064Z,10.57
2022-10-10T06:08:21.770Z,10.57
2022-10-10T06:10:26.522Z,10.58
2022-10-10T06:12:31.261Z,10.57
2022-10-10T06:14:36.020Z,10.59
2022-10-10T06:16:42.753Z,10.61
2022-10-10T06:18:47.565Z,10.62
2022-10-10T06:20:52.360Z,10.64
2022-10-10T06:22:57.138Z,10.67
2022-10-10T06:25:04.527Z,10.67
2022-10-10T06:27:09.374Z,10.68
2022-10-10T06:29:14.132Z,10.69
2022-10-10T06:31:18.894Z,10.69
2022-10-10T06:33:23.820Z,10.71
2022-10-10T06:35:28.911Z,10.71
2022-10-10T06:37:33.711Z,10.71
2022-10-10T06:39:38.477Z,10.68
2022-10-10T06:41:45.831Z,10.68
2022-10-10T06:43:51.907Z,10.71
2022-10-10T06:45:56.769Z,10.71
2022-10-10T06:48:01.507Z,10.69
2022-10-10T06:50:06.719Z,10.66
2022-10-10T06:52:11.487Z,10.64
2022-10-10T06:54:16.388Z,10.64
2022-10-10T06:56:27.311Z,10.65
2022-10-10T06:58:36.228Z,10.68
2022-10-10T07:00:40.980Z,10.72
2022-10-10T07:02:45.838Z,10.75
2022-10-10T07:04:50.659Z,10.77
2022-10-10T07:06:55.495Z,10.81
2022-10-10T07:09:00.926Z,10.85
2022-10-10T07:11:07.295Z,10.90
2022-10-10T07:13:12.088Z,10.93
2022-10-10T07:15:19.938Z,11.00
2022-10-10T07:17:24.946Z,10.99
2022-10-10T07:19:29.781Z,10.97
2022-10-10T07:21:34.769Z,10.96
2022-10-10T07:23:39.714Z,10.98
2022-10-10T07:25:46.088Z,10.99
2022-10-10T07:27:50.929Z,11.03
2022-10-10T07:29:55.666Z,11.09
2022-10-10T07:32:03.055Z,11.11
2022-10-10T07:34:08.990Z,11.12
2022-10-10T07:36:14.542Z,11.14
2022-10-10T07:38:19.678Z,11.19
2022-10-10T07:40:24.704Z,11.23
2022-10-10T07:42:29.522Z,11.30
2022-10-10T07:44:34.894Z,11.36
2022-10-10T07:46:39.740Z,11.41
2022-10-10T07:48:48.881Z,11.47
2022-10-10T07:50:53.659Z,11.51
2022-10-10T07:52:58.374Z,11.54
2022-10-10T07:55:03.143Z,11.55
2022-10-10T07:57:07.956Z,11.57
2022-10-10T07:59:12.757Z,11.61
2022-10-10T08:01:17.669Z,11.66
2022-10-10T08:03:22.598Z,11.74
2022-10-10T08:05:30.029Z,11.81
2022-10-10T08:07:34.863Z,11.88
2022-10-10T08:09:39.743Z,11.95
2022-10-10T08:11:44.500Z,12.03
2022-10-10T08:13:49.280Z,12.10
2022-10-10T08:15:54.486Z,12.11
2022-10-10T08:17:59.234Z,12.18
2022-10-10T08:20:03.974Z,12.27
2022-10-10T08:22:11.418Z,12.33
2022-10-10T08:24:16.177Z,12.39
2022-10-10T08:26:21.793Z,12.44
2022-10-10T08:28:26.801Z,12.55
2022-10-10T08:30:31.766Z,12.64
2022-10-10T08:32:36.669Z,12.73
2022-10-10T08:34:41.546Z,12.80
2022-10-10T08:36:46.432Z,12.87
2022-10-10T08:38:56.320Z,12.95
2022-10-10T08:41:03.636Z,13.07
2022-10-10T08:43:12.289Z,13.21
2022-10-10T08:45:22.595Z,13.33
2022-10-10T08:47:34.913Z,13.46
2022-10-10T08:49:44.423Z,13.57
2022-10-10T08:51:54.871Z,13.70
2022-10-10T08:54:07.079Z,13.84
2022-10-10T08:56:19.396Z,13.94
2022-10-10T08:58:27.359Z,14.01
2022-10-10T09:00:37.457Z,14.11
2022-10-10T09:02:53.735Z,14.24
2022-10-10T09:04:59.643Z,14.41
2022-10-10T09:07:15.141Z,14.45
2022-10-10T09:09:28.845Z,14.61
2022-10-10T09:11:48.834Z,14.79
2022-10-10T09:14:04.699Z,14.99
2022-10-10T09:16:21.166Z,15.14
2022-10-10T09:18:41.289Z,15.22
2022-10-10T09:20:54.253Z,15.34
2022-10-10T09:23:04.958Z,15.37
2022-10-10T09:25:21.742Z,15.38
2022-10-10T09:27:32.384Z,15.39
2022-10-10T09:29:43.615Z,15.38
2022-10-10T09:31:53.813Z,15.36
2022-10-10T09:34:03.324Z,15.35
2022-10-10T09:36:15.908Z,15.39
2022-10-10T09:38:34.983Z,15.41
2022-10-10T09:40:49.130Z,15.44
2022-10-10T09:42:53.882Z,15.47
2022-10-10T09:44:58.717Z,15.58
2022-10-10T09:47:03.578Z,15.59
2022-10-10T09:49:08.609Z,15.69
2022-10-10T09:51:17.295Z,15.77
2022-10-10T09:53:22.106Z,15.86
2022-10-10T09:55:30.699Z,15.92
2022-10-10T09:57:42.019Z,16.00
2022-10-10T09:59:48.170Z,16.15
2022-10-10T10:02:05.275Z,16.21
2022-10-10T10:04:30.894Z,16.26
2022-10-10T10:06:35.935Z,16.22
2022-10-10T10:08:40.780Z,16.29
2022-10-10T10:10:45.653Z,16.36
2022-10-10T10:12:54.301Z,16.44
2022-10-10T10:15:03.258Z,16.59
2022-10-10T10:17:11.222Z,16.66
2022-10-10T10:19:34.896Z,16.72
2022-10-10T10:21:52.122Z,16.78
2022-10-10T10:24:00.660Z,16.84
2022-10-10T10:26:08.170Z,16.92
2022-10-10T10:28:23.653Z,17.09
2022-10-10T10:30:29.060Z,17.16
2022-10-10T10:32:48.327Z,17.26
2022-10-10T10:35:18.497Z,17.30
2022-10-10T10:37:26.857Z,17.34
2022-10-10T10:39:45.299Z,17.33
2022-10-10T10:41:58.485Z,17.36
2022-10-10T10:44:32.689Z,17.47
2022-10-10T10:46:49.627Z,17.49
2022-10-10T10:49:03.284Z,17.42
2022-10-10T10:51:21.119Z,17.42
2022-10-10T10:53:38.763Z,17.44
2022-10-10T10:55:49.711Z,17.46
2022-10-10T10:59:04.954Z,17.39
2022-10-10T11:01:24.231Z,17.40
2022-10-10T11:05:19.452Z,17.48
2022-10-10T11:06:08.560Z,17.65
2022-10-10T11:08:42.551Z,17.81
2022-10-10T11:10:57.546Z,17.94
2022-10-10T11:13:09.499Z,18.01
2022-10-10T11:15:20.456Z,18.10
2022-10-10T11:17:37.160Z,18.23
2022-10-10T11:19:48.929Z,18.37
2022-10-10T11:22:00.750Z,18.50
2022-10-10T11:24:09.926Z,18.67
2022-10-10T11:26:21.970Z,18.83
2022-10-10T11:28:32.132Z,18.95
2022-10-10T11:30:42.420Z,18.99
2022-10-10T11:32:57.065Z,19.09
2022-10-10T11:35:28.660Z,19.12
2022-10-10T11:37:39.823Z,19.11
2022-10-10T11:39:48.949Z,19.04
2022-10-10T11:42:00.109Z,18.92
2022-10-10T11:44:10.289Z,18.70
2022-10-10T11:46:23.433Z,18.65
2022-10-10T11:48:42.776Z,18.53
2022-10-10T11:50:47.964Z,18.42
2022-10-10T11:52:54.971Z,18.29
2022-10-10T11:55:04.934Z,18.16
2022-10-10T11:57:16.780Z,18.17
2022-10-10T11:59:29.744Z,18.17
2022-10-10T12:01:38.450Z,18.15
2022-10-10T12:03:46.113Z,18.19
2022-10-10T12:05:56.754Z,18.25
2022-10-10T12:08:18.152Z,18.39
2022-10-10T12:10:27.251Z,18.52
2022-10-10T12:12:36.590Z,18.63
2022-10-10T12:14:48.133Z,18.72
2022-10-10T12:16:53.525Z,18.77
2022-10-10T12:19:05.328Z,18.84
2022-10-10T12:21:13.725Z,18.86
2022-10-10T12:23:33.542Z,18.90
2022-10-10T12:25:42.242Z,18.95
2022-10-10T12:27:49.830Z,18.96
2022-10-10T12:30:24.860Z,19.00
2022-10-10T12:32:30.996Z,18.96
2022-10-10T12:35:00.786Z,18.99
2022-10-10T12:37:26.180Z,19.06
2022-10-10T12:39:37.259Z,19.09
2022-10-10T12:41:58.316Z,19.16
2022-10-10T12:44:21.796Z,19.21
2022-10-10T12:46:34.975Z,19.30
2022-10-10T12:48:39.933Z,19.41
2022-10-10T12:50:58.680Z,19.53
2022-10-10T12:53:05.845Z,19.55
2022-10-10T12:55:21.924Z,19.57
2022-10-10T12:57:34.185Z,19.63
2022-10-10T12:59:41.322Z,19.67
2022-10-10T13:01:53.067Z,19.74
2022-10-10T13:03:59.444Z,19.82
2022-10-10T13:06:11.297Z,19.80
2022-10-10T13:08:19.430Z,19.84
2022-10-10T13:10:26.799Z,19.91
2022-10-10T13:12:34.292Z,19.96
2022-10-10T13:14:43.743Z,19.93
2022-10-10T13:16:48.606Z,19.97
2022-10-10T13:18:55.344Z,19.97
2022-10-10T13:21:00.406Z,20.04
2022-10-10T13:23:14.179Z,20.09
2022-10-10T13:25:21.351Z,20.14
2022-10-10T13:27:29.206Z,20.17
2022-10-10T13:29:36.650Z,20.20
2022-10-10T13:31:41.681Z,20.16
2022-10-10T13:33:46.282Z,20.06
2022-10-10T13:35:53.230Z,20.09
2022-10-10T13:38:01.976Z,20.19
2022-10-10T13:40:17.099Z,20.21
2022-10-10T13:42:35.109Z,20.24
2022-10-10T13:44:51.820Z,20.26
2022-10-10T13:46:56.698Z,20.22
2022-10-10T13:49:02.135Z,20.20
2022-10-10T13:51:10.741Z,20.16
2022-10-10T13:53:35.330Z,20.12
2022-10-10T13:55:43.346Z,20.06
2022-10-10T13:57:48.192Z,20.01
2022-10-10T14:00:02.971Z,19.97
2022-10-10T14:02:15.226Z,19.95
2022-10-10T14:04:25.117Z,19.90
2022-10-10T14:06:31.877Z,19.84
2022-10-10T14:08:36.762Z,19.77
2022-10-10T14:10:44.497Z,19.68
2022-10-10T14:12:54.120Z,19.59
2022-10-10T14:15:00.582Z,19.55
2022-10-10T14:17:07.816Z,19.43
2022-10-10T14:19:21.119Z,19.37
2022-10-10T14:21:26.113Z,19.28
2022-10-10T14:23:31.025Z,19.20
2022-10-10T14:25:35.933Z,19.10
2022-10-10T14:27:43.318Z,19.07
2022-10-10T14:29:49.139Z,19.03
2022-10-10T14:31:54.282Z,19.03
2022-10-10T14:33:58.823Z,18.96
2022-10-10T14:36:03.645Z,18.93
2022-10-10T14:38:08.535Z,18.94
2022-10-10T14:40:22.206Z,18.95
2022-10-10T14:42:28.467Z,18.94
2022-10-10T14:44:36.350Z,18.93
2022-10-10T14:46:42.436Z,18.88
2022-10-10T14:48:47.257Z,18.88
2022-10-10T14:50:52.792Z,18.87
2022-10-10T14:52:57.758Z,18.87
2022-10-10T14:55:02.742Z,18.84
2022-10-10T14:57:10.138Z,18.80
2022-10-10T14:59:49.405Z,18.79
2022-10-10T15:01:48.904Z,18.77
2022-10-10T15:03:54.018Z,18.78
2022-10-10T15:05:58.637Z,18.72
2022-10-10T15:08:03.449Z,18.72
2022-10-10T15:12:35.974Z,18.74
2022-10-10T15:14:40.773Z,18.73
2022-10-10T15:16:48.138Z,18.74
2022-10-10T15:18:54.366Z,18.74
2022-10-10T15:21:00.025Z,18.70
2022-10-10T15:23:07.437Z,18.70
2022-10-10T15:25:12.761Z,18.68
2022-10-10T15:27:17.606Z,18.70
2022-10-10T15:29:22.353Z,18.66
2022-10-10T15:31:32.823Z,18.64
2022-10-10T15:33:40.179Z,18.62
2022-10-10T15:36:08.081Z,18.61
2022-10-10T15:38:09.660Z,18.59
2022-10-10T15:40:16.571Z,18.56
2022-10-10T15:42:23.066Z,18.57
2022-10-10T15:44:28.296Z,18.54
2022-10-10T15:46:33.658Z,18.51
2022-10-10T15:48:41.028Z,18.51
2022-10-10T15:50:45.759Z,18.48
2022-10-10T15:52:50.915Z,18.45
2022-10-10T15:54:55.727Z,18.36
2022-10-10T15:57:00.532Z,18.31
2022-10-10T15:59:05.718Z,18.28
2022-10-10T16:01:15.184Z,18.27
2022-10-10T16:03:19.954Z,18.24
2022-10-10T16:05:29.231Z,18.20
2022-10-10T16:07:40.737Z,18.17
2022-10-10T16:09:47.149Z,18.11
2022-10-10T16:11:51.942Z,18.06
2022-10-10T16:13:58.237Z,18.01
2022-10-10T16:16:06.184Z,17.97
2022-10-10T16:18:11.147Z,17.95
2022-10-10T16:20:16.094Z,17.91
2022-10-10T16:22:23.526Z,17.87
2022-10-10T16:24:28.330Z,17.83
2022-10-10T16:26:36.588Z,17.72
2022-10-10T16:28:41.463Z,17.67
2022-10-10T16:30:46.305Z,17.63
2022-10-10T16:32:51.397Z,17.61
2022-10-10T16:34:55.925Z,17.53
2022-10-10T16:37:00.661Z,17.46
2022-10-10T16:39:08.334Z,17.42
2022-10-10T16:41:29.134Z,17.37
2022-10-10T16:43:41.073Z,17.27
2022-10-10T16:45:46.438Z,17.24
2022-10-10T16:47:51.220Z,17.19
2022-10-10T16:49:55.929Z,17.15
2022-10-10T16:52:00.731Z,17.11
2022-10-10T16:54:08.841Z,17.08
2022-10-10T16:56:15.614Z,17.03
2022-10-10T16:58:20.393Z,16.98
2022-10-10T17:00:25.192Z,16.90
2022-10-10T17:02:29.965Z,16.85
2022-10-10T17:04:34.752Z,16.81
2022-10-10T17:06:39.737Z,16.77
2022-10-10T17:08:45.120Z,16.75
2022-10-10T17:10:52.475Z,16.75
2022-10-10T17:12:57.187Z,16.72
2022-10-10T17:15:02.254Z,16.69
2022-10-10T17:17:12.121Z,16.65
2022-10-10T17:19:17.600Z,16.62
2022-10-10T17:21:24.790Z,16.59
2022-10-10T17:23:29.501Z,16.54
2022-10-10T17:25:34.274Z,16.48
2022-10-10T17:27:42.502Z,16.46
2022-10-10T17:29:47.327Z,16.42
2022-10-10T17:31:52.099Z,16.38
2022-10-10T17:33:57.212Z,16.28
2022-10-10T17:36:01.941Z,16.23
2022-10-10T17:38:27.888Z,16.18
2022-10-10T17:40:31.477Z,16.16
2022-10-10T17:42:36.831Z,16.14
2022-10-10T17:44:50.458Z,16.12
2022-10-10T17:46:58.686Z,16.07
2022-10-10T17:49:03.753Z,16.07
2022-10-10T17:51:09.721Z,16.05
2022-10-10T17:53:14.471Z,16.02
2022-10-10T17:55:19.543Z,16.02
2022-10-10T17:57:24.719Z,15.99
2022-10-10T17:59:29.802Z,15.96
2022-10-10T18:01:37.864Z,15.94
2022-10-10T18:03:42.899Z,15.91
2022-10-10T18:05:47.653Z,15.89
2022-10-10T18:07:54.306Z,15.83
2022-10-10T18:09:59.087Z,15.80
2022-10-10T18:12:03.818Z,15.77
2022-10-10T18:14:08.605Z,15.74
2022-10-10T18:16:15.469Z,15.74
2022-10-10T18:18:22.808Z,15.74
2022-10-10T18:20:27.808Z,15.73
2022-10-10T18:22:32.621Z,15.70
2022-10-10T18:24:37.386Z,15.66
2022-10-10T18:26:42.200Z,15.63
2022-10-10T18:28:47.372Z,15.62
2022-10-10T18:30:51.868Z,15.55
2022-10-10T18:32:56.694Z,15.48
2022-10-10T18:35:04.223Z,15.44
2022-10-10T18:37:10.193Z,15.41
2022-10-10T18:39:20.032Z,15.39
2022-10-10T18:41:30.637Z,15.35
2022-10-10T18:43:35.640Z,15.32
2022-10-10T18:45:40.423Z,15.26
2022-10-10T18:47:45.211Z,15.23
2022-10-10T18:49:50.071Z,15.25
2022-10-10T18:51:57.425Z,15.27
2022-10-10T18:54:04.378Z,15.27
2022-10-10T18:56:09.762Z,15.22
2022-10-10T18:58:14.618Z,15.20
2022-10-10T19:00:19.990Z,15.17
2022-10-10T19:02:24.704Z,15.16
2022-10-10T19:04:29.713Z,15.14
2022-10-10T19:06:34.590Z,15.11
2022-10-10T19:08:42.764Z,15.10
2022-10-10T19:10:47.923Z,15.07
2022-10-10T19:12:52.471Z,15.02
2022-10-10T19:14:57.259Z,15.00
2022-10-10T19:17:02.017Z,15.00
2022-10-10T19:19:07.365Z,15.01
2022-10-10T19:21:13.157Z,15.01
2022-10-10T19:23:19.748Z,14.99
2022-10-10T19:25:27.618Z,14.97
2022-10-10T19:27:32.418Z,14.94
2022-10-10T19:29:37.357Z,14.90
2022-10-10T19:31:43.488Z,14.88
2022-10-10T19:33:53.162Z,14.85
2022-10-10T19:35:57.944Z,14.84
2022-10-10T19:38:02.666Z,14.80
2022-10-10T19:40:09.012Z,14.77
2022-10-10T19:42:16.383Z,14.75
2022-10-10T19:44:21.165Z,14.73
2022-10-10T19:46:27.017Z,14.71
2022-10-10T19:48:32.897Z,14.69
2022-10-10T19:50:41.193Z,14.66
2022-10-10T19:52:46.084Z,14.64
2022-10-10T19:54:50.878Z,14.60
2022-10-10T19:56:55.662Z,14.61
2022-10-10T19:59:04.553Z,14.63
2022-10-10T20:01:10.078Z,14.63
2022-10-10T20:03:14.900Z,14.60
2022-10-10T20:05:20.892Z,14.58
2022-10-10T20:07:25.814Z,14.56
2022-10-10T20:09:30.696Z,14.55
2022-10-10T20:11:35.430Z,14.54
2022-10-10T20:13:40.271Z,14.54
2022-10-10T20:15:49.738Z,14.54
2022-10-10T20:17:54.521Z,14.55
2022-10-10T20:19:59.233Z,14.55
2022-10-10T20:22:03.964Z,14.56
2022-10-10T20:24:11.890Z,14.54
2022-10-10T20:26:18.889Z,14.52
2022-10-10T20:28:25.015Z,14.50
2022-10-10T20:30:29.775Z,14.52
2022-10-10T20:32:37.111Z,14.49
2022-10-10T20:34:41.861Z,14.49
2022-10-10T20:36:46.675Z,14.48
2022-10-10T20:38:55.223Z,14.48
2022-10-10T20:40:59.951Z,14.48
2022-10-10T20:43:04.747Z,14.52
2022-10-10T20:45:11.505Z,14.55
2022-10-10T20:47:16.359Z,14.59
2022-10-10T20:49:25.159Z,14.65
2022-10-10T20:51:30.985Z,14.65
2022-10-10T20:53:35.795Z,14.60
2022-10-10T20:55:40.688Z,14.58
2022-10-10T20:57:45.506Z,14.57
2022-10-10T20:59:50.234Z,14.59
2022-10-10T21:01:55.079Z,14.60
2022-10-10T21:04:00.252Z,14.63
2022-10-10T21:06:10.762Z,14.66
2022-10-10T21:08:15.886Z,14.67
2022-10-10T21:10:20.950Z,14.68
2022-10-10T21:12:25.703Z,14.72
2022-10-10T21:14:30.663Z,14.75
2022-10-10T21:16:36.946Z,14.77
2022-10-10T21:18:43.010Z,14.78
2022-10-10T21:20:51.971Z,14.81
2022-10-10T21:22:59.264Z,14.83
2022-10-10T21:25:04.184Z,14.82
2022-10-10T21:27:08.992Z,14.80
2022-10-10T21:29:13.994Z,14.80
2022-10-10T21:31:20.001Z,14.80
2022-10-10T21:33:24.766Z,14.82
2022-10-10T21:35:29.493Z,14.83
2022-10-10T21:37:34.245Z,14.82
2022-10-10T21:39:41.579Z,14.80
2022-10-10T21:41:46.323Z,14.82
2022-10-10T21:43:54.798Z,14.81
2022-10-10T21:46:05.772Z,14.76
2022-10-10T21:48:12.859Z,14.75
2022-10-10T21:50:17.737Z,14.68
2022-10-10T21:52:22.435Z,14.57
2022-10-10T21:54:27.238Z,14.55
2022-10-10T21:56:35.308Z,14.54
2022-10-10T21:58:42.689Z,14.50
2022-10-10T22:00:47.548Z,14.56
2022-10-10T22:02:52.507Z,14.59
2022-10-10T22:04:58.806Z,14.62
2022-10-10T22:07:04.714Z,14.63
2022-10-10T22:09:09.487Z,14.62
2022-10-10T22:11:17.172Z,14.70
2022-10-10T22:13:24.597Z,14.75
2022-10-10T22:15:30.435Z,14.78
2022-10-10T22:17:35.222Z,14.81
2022-10-10T22:19:40.155Z,14.87
2022-10-10T22:21:45.018Z,14.90
2022-10-10T22:23:49.827Z,14.84
2022-10-10T22:25:54.710Z,14.85
2022-10-10T22:28:05.164Z,14.73
2022-10-10T22:30:15.635Z,14.68
2022-10-10T22:32:20.367Z,14.66
2022-10-10T22:34:25.091Z,14.68
2022-10-10T22:36:29.860Z,14.66
2022-10-10T22:38:34.891Z,14.57
2022-10-10T22:40:39.451Z,14.57
2022-10-10T22:42:44.607Z,14.54
2022-10-10T22:44:49.174Z,14.52
2022-10-10T22:46:56.707Z,14.57
2022-10-10T22:49:01.567Z,14.61
2022-10-10T22:51:08.207Z,14.64
2022-10-10T22:53:13.061Z,14.68
2022-10-10T22:55:18.935Z,14.74
2022-10-10T22:57:23.886Z,14.81
2022-10-10T22:59:29.035Z,14.79
2022-10-10T23:01:33.521Z,14.71
2022-10-10T23:03:40.934Z,14.65
2022-10-10T23:05:46.046Z,14.65
2022-10-10T23:07:50.755Z,14.57
2022-10-10T23:09:55.548Z,14.55
2022-10-10T23:12:00.285Z,14.51
2022-10-10T23:14:05.035Z,14.54
2022-10-10T23:16:11.025Z,14.56
2022-10-10T23:18:15.821Z,14.56
2022-10-10T23:20:23.157Z,14.58
2022-10-10T23:22:28.117Z,14.59
2022-10-10T23:24:32.848Z,14.63
2022-10-10T23:26:37.679Z,14.69
2022-10-10T23:28:44.906Z,14.80
2022-10-10T23:30:51.462Z,14.90
2022-10-10T23:32:56.210Z,14.95
2022-10-10T23:35:01.032Z,15.01
2022-10-10T23:37:08.363Z,15.06
2022-10-10T23:39:13.135Z,15.04
2022-10-10T23:41:17.953Z,15.03
2022-10-10T23:43:22.733Z,15.03
2022-10-10T23:45:27.472Z,14.99
2022-10-10T23:47:32.216Z,14.95
2022-10-10T23:49:36.979Z,14.99
2022-10-10T23:51:41.709Z,15.06
2022-10-10T23:53:49.109Z,15.12
2022-10-10T23:55:53.910Z,15.19
2022-10-10T23:57:58.779Z,15.23
